sensor_id;sensor_type;location;lat;lon;timestamp;pressure;altitude;pressure_sealevel;temperature;humidity
54592;BME280;40488;48.558;18.150;2023-02-19T00:01:52;99611.78;;;10.25;69.19
54592;BME280;40488;48.558;18.150;2023-02-19T00:04:21;99606.72;;;10.22;69.39
54592;BME280;40488;48.558;18.150;2023-02-19T00:06:50;99622.84;;;10.31;69.18
54592;BME280;40488;48.558;18.150;2023-02-19T00:09:19;99614.31;;;10.49;68.29
54592;BME280;40488;48.558;18.150;2023-02-19T00:11:48;99609.19;;;10.56;67.84
54592;BME280;40488;48.558;18.150;2023-02-19T00:14:18;99612.63;;;10.55;68.09
54592;BME280;40488;48.558;18.150;2023-02-19T00:16:49;99622.84;;;10.43;68.16
54592;BME280;40488;48.558;18.150;2023-02-19T00:19:19;99596.47;;;10.47;67.90
54592;BME280;40488;48.558;18.150;2023-02-19T00:21:50;99614.28;;;10.74;66.65
54592;BME280;40488;48.558;18.150;2023-02-19T00:24:19;99623.66;;;10.65;66.94
54592;BME280;40488;48.558;18.150;2023-02-19T00:26:49;99621.94;;;10.74;66.38
54592;BME280;40488;48.558;18.150;2023-02-19T00:29:19;99629.56;;;10.77;66.14
54592;BME280;40488;48.558;18.150;2023-02-19T00:31:50;99624.53;;;10.58;66.55
54592;BME280;40488;48.558;18.150;2023-02-19T00:34:19;99611.78;;;10.38;67.83
54592;BME280;40488;48.558;18.150;2023-02-19T00:36:48;99604.13;;;10.20;68.23
54592;BME280;40488;48.558;18.150;2023-02-19T00:39:18;99607.50;;;10.08;68.99
54592;BME280;40488;48.558;18.150;2023-02-19T00:41:47;99614.31;;;9.99;69.12
54592;BME280;40488;48.558;18.150;2023-02-19T00:44:16;99607.50;;;9.89;69.47
54592;BME280;40488;48.558;18.150;2023-02-19T00:46:47;99600.72;;;9.76;69.78
54592;BME280;40488;48.558;18.150;2023-02-19T00:49:20;99606.66;;;9.64;69.75
54592;BME280;40488;48.558;18.150;2023-02-19T00:51:51;99619.38;;;9.66;70.45
54592;BME280;40488;48.558;18.150;2023-02-19T00:54:20;99617.66;;;9.59;70.33
54592;BME280;40488;48.558;18.150;2023-02-19T00:56:50;99610.06;;;9.75;70.63
54592;BME280;40488;48.558;18.150;2023-02-19T00:59:19;99613.47;;;9.80;70.75
54592;BME280;40488;48.558;18.150;2023-02-19T01:01:48;99617.69;;;9.74;70.81
54592;BME280;40488;48.558;18.150;2023-02-19T01:04:18;99612.59;;;9.68;71.21
54592;BME280;40488;48.558;18.150;2023-02-19T01:06:47;99611.72;;;9.66;71.78
54592;BME280;40488;48.558;18.150;2023-02-19T01:09:16;99602.41;;;9.62;72.15
54592;BME280;40488;48.558;18.150;2023-02-19T01:11:45;99607.47;;;9.59;72.25
54592;BME280;40488;48.558;18.150;2023-02-19T01:14:14;99605.78;;;9.55;72.70
54592;BME280;40488;48.558;18.150;2023-02-19T01:16:42;99608.28;;;9.44;72.55
54592;BME280;40488;48.558;18.150;2023-02-19T01:19:11;99607.41;;;9.34;72.81
54592;BME280;40488;48.558;18.150;2023-02-19T01:21:41;99598.03;;;9.18;73.38
54592;BME280;40488;48.558;18.150;2023-02-19T01:24:10;99605.63;;;9.12;73.31
54592;BME280;40488;48.558;18.150;2023-02-19T01:26:39;99595.38;;;8.94;73.81
54592;BME280;40488;48.558;18.150;2023-02-19T01:29:08;99597.88;;;8.88;74.89
54592;BME280;40488;48.558;18.150;2023-02-19T01:31:38;99597.00;;;8.83;75.27
54592;BME280;40488;48.558;18.150;2023-02-19T01:34:09;99592.72;;;8.71;75.60
54592;BME280;40488;48.558;18.150;2023-02-19T01:36:41;99587.59;;;8.62;75.59
54592;BME280;40488;48.558;18.150;2023-02-19T01:39:10;99585.06;;;8.61;76.17
54592;BME280;40488;48.558;18.150;2023-02-19T01:41:40;99587.69;;;8.82;76.41
54592;BME280;40488;48.558;18.150;2023-02-19T01:47:03;99583.56;;;9.08;75.74
54592;BME280;40488;48.558;18.150;2023-02-19T01:49:36;99586.97;;;9.10;75.88
54592;BME280;40488;48.558;18.150;2023-02-19T01:52:13;99583.53;;;9.05;76.03
54592;BME280;40488;48.558;18.150;2023-02-19T01:54:45;99591.19;;;8.99;76.56
54592;BME280;40488;48.558;18.150;2023-02-19T01:57:19;99596.19;;;8.89;75.89
54592;BME280;40488;48.558;18.150;2023-02-19T01:59:52;99590.19;;;8.76;76.97
54592;BME280;40488;48.558;18.150;2023-02-19T02:02:22;99589.31;;;8.65;77.16
54592;BME280;40488;48.558;18.150;2023-02-19T02:04:54;99593.47;;;8.57;77.33
54592;BME280;40488;48.558;18.150;2023-02-19T02:07:25;99595.09;;;8.43;77.32
54592;BME280;40488;48.558;18.150;2023-02-19T02:10:08;99600.16;;;8.40;78.04
54592;BME280;40488;48.558;18.150;2023-02-19T02:12:46;99595.06;;;8.40;78.21
54592;BME280;40488;48.558;18.150;2023-02-19T02:15:16;99594.31;;;8.54;77.72
54592;BME280;40488;48.558;18.150;2023-02-19T02:17:51;99595.25;;;8.67;78.60
54592;BME280;40488;48.558;18.150;2023-02-19T02:20:35;99589.38;;;8.75;78.20
54592;BME280;40488;48.558;18.150;2023-02-19T02:23:18;99583.47;;;8.83;78.92
54592;BME280;40488;48.558;18.150;2023-02-19T02:26:03;99581.78;;;8.89;78.66
54592;BME280;40488;48.558;18.150;2023-02-19T02:29:08;99576.72;;;8.92;78.67
54592;BME280;40488;48.558;18.150;2023-02-19T02:31:48;99572.44;;;8.88;78.57
54592;BME280;40488;48.558;18.150;2023-02-19T02:34:24;99571.59;;;8.86;78.18
54592;BME280;40488;48.558;18.150;2023-02-19T02:36:56;99571.56;;;8.83;78.42
54592;BME280;40488;48.558;18.150;2023-02-19T02:39:27;99563.09;;;8.78;78.38
54592;BME280;40488;48.558;18.150;2023-02-19T02:41:58;99563.13;;;8.87;78.75
54592;BME280;40488;48.558;18.150;2023-02-19T02:44:39;99566.47;;;8.77;78.27
54592;BME280;40488;48.558;18.150;2023-02-19T02:47:10;99576.66;;;8.80;78.43
54592;BME280;40488;48.558;18.150;2023-02-19T02:49:59;99578.31;;;8.72;79.16
54592;BME280;40488;48.558;18.150;2023-02-19T02:52:36;99576.59;;;8.68;79.30
54592;BME280;40488;48.558;18.150;2023-02-19T02:55:20;99567.25;;;8.64;79.14
54592;BME280;40488;48.558;18.150;2023-02-19T02:57:49;99559.63;;;8.61;79.57
54592;BME280;40488;48.558;18.150;2023-02-19T03:00:18;99552.78;;;8.57;79.67
54592;BME280;40488;48.558;18.150;2023-02-19T03:02:49;99556.16;;;8.50;80.33
54592;BME280;40488;48.558;18.150;2023-02-19T03:05:19;99547.66;;;8.48;80.61
54592;BME280;40488;48.558;18.150;2023-02-19T03:08:04;99539.19;;;8.46;81.04
54592;BME280;40488;48.558;18.150;2023-02-19T03:10:38;99540.91;;;8.47;80.22
54592;BME280;40488;48.558;18.150;2023-02-19T03:13:10;99545.97;;;8.50;80.79
54592;BME280;40488;48.558;18.150;2023-02-19T03:15:55;99542.63;;;8.54;81.40
54592;BME280;40488;48.558;18.150;2023-02-19T03:18:46;99542.63;;;8.60;80.22
54592;BME280;40488;48.558;18.150;2023-02-19T03:21:27;99547.78;;;8.66;80.60
54592;BME280;40488;48.558;18.150;2023-02-19T03:23:57;99549.50;;;8.73;80.23
54592;BME280;40488;48.558;18.150;2023-02-19T03:26:36;99551.19;;;8.74;80.25
54592;BME280;40488;48.558;18.150;2023-02-19T03:29:09;99552.03;;;8.74;80.30
54592;BME280;40488;48.558;18.150;2023-02-19T03:31:55;99552.00;;;8.71;79.98
54592;BME280;40488;48.558;18.150;2023-02-19T03:34:33;99547.81;;;8.75;80.20
54592;BME280;40488;48.558;18.150;2023-02-19T03:37:09;99546.06;;;8.71;79.89
54592;BME280;40488;48.558;18.150;2023-02-19T03:39:39;99546.94;;;8.70;80.03
54592;BME280;40488;48.558;18.150;2023-02-19T03:42:23;99560.50;;;8.67;80.12
54592;BME280;40488;48.558;18.150;2023-02-19T03:45:10;99566.44;;;8.68;81.11
54592;BME280;40488;48.558;18.150;2023-02-19T03:47:47;99569.81;;;8.67;80.56
54592;BME280;40488;48.558;18.150;2023-02-19T03:50:23;99563.03;;;8.69;80.48
54592;BME280;40488;48.558;18.150;2023-02-19T03:53:02;99556.28;;;8.74;81.09
54592;BME280;40488;48.558;18.150;2023-02-19T03:55:42;99547.81;;;8.78;81.19
54592;BME280;40488;48.558;18.150;2023-02-19T03:58:15;99553.75;;;8.80;80.97
54592;BME280;40488;48.558;18.150;2023-02-19T04:00:52;99546.16;;;8.86;81.30
54592;BME280;40488;48.558;18.150;2023-02-19T04:03:27;99552.94;;;8.87;81.03
54592;BME280;40488;48.558;18.150;2023-02-19T04:06:01;99556.31;;;8.86;81.22
54592;BME280;40488;48.558;18.150;2023-02-19T04:08:34;99552.94;;;8.84;81.11
54592;BME280;40488;48.558;18.150;2023-02-19T04:11:05;99563.94;;;8.86;81.22
54592;BME280;40488;48.558;18.150;2023-02-19T04:13:39;99545.28;;;8.86;80.92
54592;BME280;40488;48.558;18.150;2023-02-19T04:16:14;99540.22;;;8.87;80.94
54592;BME280;40488;48.558;18.150;2023-02-19T04:18:47;99541.06;;;8.89;81.53
54592;BME280;40488;48.558;18.150;2023-02-19T04:21:20;99537.72;;;8.95;80.61
54592;BME280;40488;48.558;18.150;2023-02-19T04:23:50;99535.16;;;8.96;81.06
54592;BME280;40488;48.558;18.150;2023-02-19T04:26:20;99535.16;;;8.95;80.89
54592;BME280;40488;48.558;18.150;2023-02-19T04:28:50;99530.91;;;8.89;80.47
54592;BME280;40488;48.558;18.150;2023-02-19T04:31:19;99530.03;;;8.78;80.88
54592;BME280;40488;48.558;18.150;2023-02-19T04:33:48;99521.50;;;8.71;81.09
54592;BME280;40488;48.558;18.150;2023-02-19T04:36:16;99537.59;;;8.66;82.09
54592;BME280;40488;48.558;18.150;2023-02-19T04:38:47;99535.03;;;8.69;82.09
54592;BME280;40488;48.558;18.150;2023-02-19T04:41:16;99528.25;;;8.71;81.46
54592;BME280;40488;48.558;18.150;2023-02-19T04:43:45;99522.31;;;8.69;82.11
54592;BME280;40488;48.558;18.150;2023-02-19T04:46:14;99528.25;;;8.66;81.69
54592;BME280;40488;48.558;18.150;2023-02-19T04:48:43;99519.75;;;8.63;81.22
54592;BME280;40488;48.558;18.150;2023-02-19T04:51:12;99527.38;;;8.60;82.01
54592;BME280;40488;48.558;18.150;2023-02-19T04:53:41;99536.69;;;8.56;82.13
54592;BME280;40488;48.558;18.150;2023-02-19T04:56:13;99539.22;;;8.55;82.65
54592;BME280;40488;48.558;18.150;2023-02-19T04:58:43;99543.47;;;8.56;81.98
54592;BME280;40488;48.558;18.150;2023-02-19T05:01:12;99538.38;;;8.53;81.77
54592;BME280;40488;48.558;18.150;2023-02-19T05:03:41;99544.28;;;8.52;82.79
54592;BME280;40488;48.558;18.150;2023-02-19T05:06:12;99535.81;;;8.53;82.23
54592;BME280;40488;48.558;18.150;2023-02-19T05:08:41;99532.44;;;8.54;82.10
54592;BME280;40488;48.558;18.150;2023-02-19T05:11:11;99537.56;;;8.60;82.66
54592;BME280;40488;48.558;18.150;2023-02-19T05:13:40;99530.78;;;8.59;82.04
54592;BME280;40488;48.558;18.150;2023-02-19T05:16:13;99537.56;;;8.60;82.85
54592;BME280;40488;48.558;18.150;2023-02-19T05:18:44;99537.59;;;8.67;82.20
54592;BME280;40488;48.558;18.150;2023-02-19T05:21:14;99530.88;;;8.80;82.59
54592;BME280;40488;48.558;18.150;2023-02-19T05:23:43;99521.53;;;8.84;81.21
54592;BME280;40488;48.558;18.150;2023-02-19T05:26:15;99524.09;;;8.88;81.02
54592;BME280;40488;48.558;18.150;2023-02-19T05:28:45;99513.94;;;8.91;80.95
54592;BME280;40488;48.558;18.150;2023-02-19T05:31:15;99515.63;;;8.89;80.54
54592;BME280;40488;48.558;18.150;2023-02-19T05:33:44;99503.72;;;8.77;80.79
54592;BME280;40488;48.558;18.150;2023-02-19T05:36:18;99480.78;;;8.74;81.36
54592;BME280;40488;48.558;18.150;2023-02-19T05:38:51;99481.63;;;8.69;81.42
54592;BME280;40488;48.558;18.150;2023-02-19T05:41:24;99481.63;;;8.66;81.51
54592;BME280;40488;48.558;18.150;2023-02-19T05:43:54;99476.53;;;8.66;81.80
54592;BME280;40488;48.558;18.150;2023-02-19T05:46:25;99485.03;;;8.68;81.78
54592;BME280;40488;48.558;18.150;2023-02-19T05:48:54;99483.31;;;8.67;81.36
54592;BME280;40488;48.558;18.150;2023-02-19T05:51:25;99485.03;;;8.68;81.72
54592;BME280;40488;48.558;18.150;2023-02-19T05:53:55;99500.28;;;8.68;81.55
54592;BME280;40488;48.558;18.150;2023-02-19T05:56:30;99497.75;;;8.68;81.97
54592;BME280;40488;48.558;18.150;2023-02-19T05:59:00;99483.34;;;8.73;81.66
54592;BME280;40488;48.558;18.150;2023-02-19T06:01:31;99486.75;;;8.78;81.55
54592;BME280;40488;48.558;18.150;2023-02-19T06:04:00;99496.94;;;8.84;81.59
54592;BME280;40488;48.558;18.150;2023-02-19T06:06:29;99500.38;;;8.92;81.29
54592;BME280;40488;48.558;18.150;2023-02-19T06:08:57;99496.13;;;9.05;81.23
54592;BME280;40488;48.558;18.150;2023-02-19T06:11:28;99500.41;;;9.10;80.96
54592;BME280;40488;48.558;18.150;2023-02-19T06:13:57;99493.63;;;9.12;80.70
54592;BME280;40488;48.558;18.150;2023-02-19T06:16:26;99470.72;;;9.14;80.96
54592;BME280;40488;48.558;18.150;2023-02-19T06:18:55;99473.25;;;9.12;80.49
54592;BME280;40488;48.558;18.150;2023-02-19T06:21:24;99486.84;;;9.11;80.85
54592;BME280;40488;48.558;18.150;2023-02-19T06:23:53;99473.25;;;9.09;80.62
54592;BME280;40488;48.558;18.150;2023-02-19T06:26:23;99480.88;;;9.05;80.42
54592;BME280;40488;48.558;18.150;2023-02-19T06:28:54;99472.38;;;8.97;80.62
54592;BME280;40488;48.558;18.150;2023-02-19T06:31:22;99465.56;;;8.91;80.34
54592;BME280;40488;48.558;18.150;2023-02-19T06:33:52;99473.22;;;8.85;81.46
54592;BME280;40488;48.558;18.150;2023-02-19T06:36:21;99459.59;;;8.68;80.91
54592;BME280;40488;48.558;18.150;2023-02-19T06:38:51;99468.91;;;8.67;81.38
54592;BME280;40488;48.558;18.150;2023-02-19T06:41:19;99484.16;;;8.64;81.61
54592;BME280;40488;48.558;18.150;2023-02-19T06:43:48;99473.13;;;8.61;81.42
54592;BME280;40488;48.558;18.150;2023-02-19T06:46:18;99473.97;;;8.58;82.16
54592;BME280;40488;48.558;18.150;2023-02-19T06:48:47;99482.44;;;8.62;81.74
54592;BME280;40488;48.558;18.150;2023-02-19T06:51:18;99478.19;;;8.58;82.23
54592;BME280;40488;48.558;18.150;2023-02-19T06:53:50;99485.00;;;8.59;82.27
54592;BME280;40488;48.558;18.150;2023-02-19T06:56:24;99484.13;;;8.60;82.45
54592;BME280;40488;48.558;18.150;2023-02-19T06:58:55;99478.22;;;8.64;82.80
54592;BME280;40488;48.558;18.150;2023-02-19T07:01:28;99477.38;;;8.69;82.30
54592;BME280;40488;48.558;18.150;2023-02-19T07:03:57;99471.47;;;8.72;83.21
54592;BME280;40488;48.558;18.150;2023-02-19T07:06:26;99479.09;;;8.72;82.70
54592;BME280;40488;48.558;18.150;2023-02-19T07:08:56;99482.50;;;8.72;83.08
54592;BME280;40488;48.558;18.150;2023-02-19T07:11:26;99484.16;;;8.73;82.79
54592;BME280;40488;48.558;18.150;2023-02-19T07:14:00;99479.94;;;8.74;82.68
54592;BME280;40488;48.558;18.150;2023-02-19T07:16:31;99479.97;;;8.75;83.45
54592;BME280;40488;48.558;18.150;2023-02-19T07:19:00;99478.25;;;8.76;83.19
54592;BME280;40488;48.558;18.150;2023-02-19T07:21:29;99476.56;;;8.75;82.80
54592;BME280;40488;48.558;18.150;2023-02-19T07:23:57;99474.88;;;8.77;83.77
54592;BME280;40488;48.558;18.150;2023-02-19T07:26:26;99462.16;;;8.77;83.45
54592;BME280;40488;48.558;18.150;2023-02-19T07:28:55;99461.31;;;8.78;83.66
54592;BME280;40488;48.558;18.150;2023-02-19T07:31:24;99457.91;;;8.79;82.97
54592;BME280;40488;48.558;18.150;2023-02-19T07:33:54;99454.53;;;8.80;84.11
54592;BME280;40488;48.558;18.150;2023-02-19T07:36:23;99457.94;;;8.85;83.76
54592;BME280;40488;48.558;18.150;2023-02-19T07:38:53;99453.69;;;8.84;83.68
54592;BME280;40488;48.558;18.150;2023-02-19T07:41:23;99462.19;;;8.89;84.19
54592;BME280;40488;48.558;18.150;2023-02-19T07:43:55;99459.66;;;8.92;84.31
54592;BME280;40488;48.558;18.150;2023-02-19T07:46:24;99452.00;;;8.95;83.81
54592;BME280;40488;48.558;18.150;2023-02-19T07:48:54;99456.28;;;8.99;83.57
54592;BME280;40488;48.558;18.150;2023-02-19T07:51:23;99457.97;;;9.03;84.10
54592;BME280;40488;48.558;18.150;2023-02-19T07:53:52;99463.94;;;9.07;84.32
54592;BME280;40488;48.558;18.150;2023-02-19T07:56:21;99468.16;;;9.12;84.41
54592;BME280;40488;48.558;18.150;2023-02-19T07:58:49;99479.19;;;9.17;84.85
54592;BME280;40488;48.558;18.150;2023-02-19T08:01:20;99471.56;;;9.22;84.99
54592;BME280;40488;48.558;18.150;2023-02-19T08:04:13;99466.47;;;9.26;85.70
54592;BME280;40488;48.558;18.150;2023-02-19T08:06:41;99462.25;;;9.30;85.21
54592;BME280;40488;48.558;18.150;2023-02-19T08:09:10;99453.75;;;9.34;86.38
54592;BME280;40488;48.558;18.150;2023-02-19T08:11:40;99460.56;;;9.38;86.58
54592;BME280;40488;48.558;18.150;2023-02-19T08:14:18;99458.88;;;9.40;86.12
54592;BME280;40488;48.558;18.150;2023-02-19T08:16:48;99464.78;;;9.43;87.13
54592;BME280;40488;48.558;18.150;2023-02-19T08:19:18;99472.44;;;9.45;87.32
54592;BME280;40488;48.558;18.150;2023-02-19T08:21:47;99475.00;;;9.47;87.53
54592;BME280;40488;48.558;18.150;2023-02-19T08:24:16;99470.75;;;9.44;88.35
54592;BME280;40488;48.558;18.150;2023-02-19T08:26:45;99469.91;;;9.42;87.93
54592;BME280;40488;48.558;18.150;2023-02-19T08:29:14;99467.34;;;9.40;88.59
54592;BME280;40488;48.558;18.150;2023-02-19T08:31:42;99469.03;;;9.41;89.50
54592;BME280;40488;48.558;18.150;2023-02-19T08:34:11;99471.59;;;9.41;89.15
54592;BME280;40488;48.558;18.150;2023-02-19T08:36:41;99473.31;;;9.42;89.93
54592;BME280;40488;48.558;18.150;2023-02-19T08:39:10;99476.69;;;9.44;89.89
54592;BME280;40488;48.558;18.150;2023-02-19T08:41:39;99474.97;;;9.43;90.58
54592;BME280;40488;48.558;18.150;2023-02-19T08:44:08;99471.59;;;9.48;90.94
54592;BME280;40488;48.558;18.150;2023-02-19T08:46:36;99474.16;;;9.52;91.06
54592;BME280;40488;48.558;18.150;2023-02-19T08:49:05;99479.22;;;9.55;91.94
54592;BME280;40488;48.558;18.150;2023-02-19T08:51:34;99468.19;;;9.61;91.82
54592;BME280;40488;48.558;18.150;2023-02-19T08:54:04;99465.66;;;9.64;92.54
54592;BME280;40488;48.558;18.150;2023-02-19T08:56:34;99458.84;;;9.70;92.64
54592;BME280;40488;48.558;18.150;2023-02-19T08:59:02;99453.75;;;9.75;92.90
54592;BME280;40488;48.558;18.150;2023-02-19T09:01:31;99454.59;;;9.83;93.14
54592;BME280;40488;48.558;18.150;2023-02-19T09:04:00;99447.78;;;9.85;92.79
54592;BME280;40488;48.558;18.150;2023-02-19T09:06:30;99445.22;;;9.82;93.18
54592;BME280;40488;48.558;18.150;2023-02-19T09:09:00;99446.09;;;9.81;93.46
54592;BME280;40488;48.558;18.150;2023-02-19T09:11:30;99450.34;;;9.77;93.77
54592;BME280;40488;48.558;18.150;2023-02-19T09:14:00;99446.09;;;9.75;93.59
54592;BME280;40488;48.558;18.150;2023-02-19T09:16:28;99447.81;;;9.79;93.70
54592;BME280;40488;48.558;18.150;2023-02-19T09:18:57;99447.78;;;9.91;93.82
54592;BME280;40488;48.558;18.150;2023-02-19T09:21:26;99429.03;;;10.10;94.32
54592;BME280;40488;48.558;18.150;2023-02-19T09:23:54;99423.06;;;10.26;94.19
54592;BME280;40488;48.558;18.150;2023-02-19T09:26:23;99430.59;;;10.52;94.46
54592;BME280;40488;48.558;18.150;2023-02-19T09:28:53;99431.31;;;10.80;94.94
54592;BME280;40488;48.558;18.150;2023-02-19T09:31:22;99437.16;;;10.97;94.70
54592;BME280;40488;48.558;18.150;2023-02-19T09:33:51;99443.06;;;11.05;94.60
54592;BME280;40488;48.558;18.150;2023-02-19T09:36:19;99437.91;;;11.15;94.56
54592;BME280;40488;48.558;18.150;2023-02-19T09:38:48;99424.97;;;11.33;94.41
54592;BME280;40488;48.558;18.150;2023-02-19T09:41:21;99424.03;;;11.47;94.24
54592;BME280;40488;48.558;18.150;2023-02-19T09:43:56;99419.69;;;11.53;93.91
54592;BME280;40488;48.558;18.150;2023-02-19T09:46:29;99424.78;;;11.55;93.84
54592;BME280;40488;48.558;18.150;2023-02-19T09:49:02;99415.50;;;11.49;93.45
54592;BME280;40488;48.558;18.150;2023-02-19T09:51:36;99423.22;;;11.40;93.40
54592;BME280;40488;48.558;18.150;2023-02-19T09:54:08;99431.69;;;11.45;93.31
54592;BME280;40488;48.558;18.150;2023-02-19T09:56:39;99424.72;;;11.65;92.99
54592;BME280;40488;48.558;18.150;2023-02-19T09:59:16;99411.63;;;11.97;92.81
54592;BME280;40488;48.558;18.150;2023-02-19T10:01:48;99417.44;;;12.09;92.02
54592;BME280;40488;48.558;18.150;2023-02-19T10:04:20;99409.56;;;12.26;91.66
54592;BME280;40488;48.558;18.150;2023-02-19T10:06:48;99401.78;;;12.37;90.83
54592;BME280;40488;48.558;18.150;2023-02-19T10:09:20;99405.13;;;12.42;89.78
54592;BME280;40488;48.558;18.150;2023-02-19T10:11:51;99401.69;;;12.44;88.66
54592;BME280;40488;48.558;18.150;2023-02-19T10:14:29;99398.31;;;12.41;87.58
54592;BME280;40488;48.558;18.150;2023-02-19T10:17:03;99402.66;;;12.34;86.30
54592;BME280;40488;48.558;18.150;2023-02-19T10:19:32;99393.31;;;12.32;85.89
54592;BME280;40488;48.558;18.150;2023-02-19T10:22:01;99388.28;;;12.26;85.15
54592;BME280;40488;48.558;18.150;2023-02-19T10:24:31;99389.25;;;12.14;84.60
54592;BME280;40488;48.558;18.150;2023-02-19T10:26:59;99386.75;;;12.09;83.95
54592;BME280;40488;48.558;18.150;2023-02-19T10:29:29;99366.28;;;12.09;83.31
54592;BME280;40488;48.558;18.150;2023-02-19T10:32:12;99386.66;;;12.19;82.77
54592;BME280;40488;48.558;18.150;2023-02-19T10:34:43;99380.59;;;12.26;82.36
54592;BME280;40488;48.558;18.150;2023-02-19T10:37:13;99388.28;;;12.26;82.29
54592;BME280;40488;48.558;18.150;2023-02-19T10:39:45;99398.53;;;12.23;82.03
54592;BME280;40488;48.558;18.150;2023-02-19T10:42:18;99382.38;;;12.21;82.04
54592;BME280;40488;48.558;18.150;2023-02-19T10:44:52;99391.78;;;12.19;81.54
54592;BME280;40488;48.558;18.150;2023-02-19T10:47:25;99361.19;;;12.08;81.59
54592;BME280;40488;48.558;18.150;2023-02-19T10:49:56;99369.75;;;12.05;81.42
54592;BME280;40488;48.558;18.150;2023-02-19T10:52:27;99374.09;;;11.99;81.53
54592;BME280;40488;48.558;18.150;2023-02-19T10:55:14;99378.38;;;11.98;81.31
54592;BME280;40488;48.558;18.150;2023-02-19T10:57:43;99378.41;;;11.97;81.34
54592;BME280;40488;48.558;18.150;2023-02-19T11:00:22;99392.81;;;12.02;81.59
54592;BME280;40488;48.558;18.150;2023-02-19T11:03:13;99385.94;;;12.07;81.67
54592;BME280;40488;48.558;18.150;2023-02-19T11:05:52;99380.81;;;12.09;81.80
54592;BME280;40488;48.558;18.150;2023-02-19T11:08:23;99369.69;;;12.12;81.84
54592;BME280;40488;48.558;18.150;2023-02-19T11:10:51;99361.16;;;12.09;82.06
54592;BME280;40488;48.558;18.150;2023-02-19T11:13:25;99360.97;;;12.28;82.07
54592;BME280;40488;48.558;18.150;2023-02-19T11:15:59;99379.34;;;12.57;81.67
54592;BME280;40488;48.558;18.150;2023-02-19T11:18:29;99382.59;;;12.68;81.07
54592;BME280;40488;48.558;18.150;2023-02-19T11:21:00;99369.81;;;12.65;80.71
54592;BME280;40488;48.558;18.150;2023-02-19T11:23:31;99365.44;;;12.73;80.98
54592;BME280;40488;48.558;18.150;2023-02-19T11:26:04;99371.34;;;12.78;80.32
54592;BME280;40488;48.558;18.150;2023-02-19T11:28:35;99376.28;;;12.90;80.04
54592;BME280;40488;48.558;18.150;2023-02-19T11:31:22;99391.47;;;13.01;78.80
54592;BME280;40488;48.558;18.150;2023-02-19T11:33:58;99392.31;;;13.04;78.52
54592;BME280;40488;48.558;18.150;2023-02-19T11:36:29;99398.53;;;12.88;78.10
54592;BME280;40488;48.558;18.150;2023-02-19T11:39:04;99395.41;;;12.68;78.09
54592;BME280;40488;48.558;18.150;2023-02-19T11:42:00;99405.94;;;12.47;77.78
54592;BME280;40488;48.558;18.150;2023-02-19T11:44:39;99400.13;;;12.31;77.65
54592;BME280;40488;48.558;18.150;2023-02-19T11:47:37;99392.59;;;12.19;77.73
54592;BME280;40488;48.558;18.150;2023-02-19T11:50:16;99396.94;;;12.16;78.02
54592;BME280;40488;48.558;18.150;2023-02-19T11:52:55;99391.81;;;12.16;78.28
54592;BME280;40488;48.558;18.150;2023-02-19T11:55:41;99403.72;;;12.17;78.39
54592;BME280;40488;48.558;18.150;2023-02-19T11:58:32;99404.56;;;12.17;78.18
54592;BME280;40488;48.558;18.150;2023-02-19T12:01:11;99393.50;;;12.17;77.83
54592;BME280;40488;48.558;18.150;2023-02-19T12:04:01;99388.47;;;12.10;77.83
54592;BME280;40488;48.558;18.150;2023-02-19T12:06:44;99393.63;;;12.04;78.06
54592;BME280;40488;48.558;18.150;2023-02-19T12:09:29;99392.88;;;11.96;78.19
54592;BME280;40488;48.558;18.150;2023-02-19T12:12:16;99382.75;;;11.87;77.91
54592;BME280;40488;48.558;18.150;2023-02-19T12:15:02;99386.25;;;11.80;78.05
54592;BME280;40488;48.558;18.150;2023-02-19T12:17:46;99372.59;;;11.83;78.23
54592;BME280;40488;48.558;18.150;2023-02-19T12:20:25;99380.28;;;11.78;78.11
54592;BME280;40488;48.558;18.150;2023-02-19T12:23:02;99389.66;;;11.79;77.87
54592;BME280;40488;48.558;18.150;2023-02-19T12:25:49;99372.63;;;11.80;77.29
54592;BME280;40488;48.558;18.150;2023-02-19T12:28:41;99390.47;;;11.81;76.36
54592;BME280;40488;48.558;18.150;2023-02-19T12:34:18;99386.16;;;11.88;75.81
54592;BME280;40488;48.558;18.150;2023-02-19T12:37:03;99383.63;;;11.86;75.66
54592;BME280;40488;48.558;18.150;2023-02-19T12:39:43;99397.22;;;11.88;74.95
54592;BME280;40488;48.558;18.150;2023-02-19T12:42:36;99404.84;;;11.93;74.59
54592;BME280;40488;48.558;18.150;2023-02-19T12:45:15;99390.31;;;11.96;74.33
54592;BME280;40488;48.558;18.150;2023-02-19T12:47:56;99389.44;;;11.99;74.45
54592;BME280;40488;48.558;18.150;2023-02-19T12:50:27;99393.69;;;12.01;74.37
54592;BME280;40488;48.558;18.150;2023-02-19T12:53:02;99390.31;;;11.99;74.22
54592;BME280;40488;48.558;18.150;2023-02-19T12:55:37;99398.00;;;11.96;74.33
54592;BME280;40488;48.558;18.150;2023-02-19T12:58:12;99389.50;;;11.93;74.20
54592;BME280;40488;48.558;18.150;2023-02-19T13:00:44;99387.00;;;11.90;74.27
54592;BME280;40488;48.558;18.150;2023-02-19T13:03:20;99397.19;;;11.94;74.13
54592;BME280;40488;48.558;18.150;2023-02-19T13:05:54;99400.56;;;11.96;73.74
54592;BME280;40488;48.558;18.150;2023-02-19T13:08:31;99392.84;;;11.98;73.92
54592;BME280;40488;48.558;18.150;2023-02-19T13:11:11;99398.81;;;12.01;74.01
54592;BME280;40488;48.558;18.150;2023-02-19T13:13:44;99404.75;;;12.00;73.97
54592;BME280;40488;48.558;18.150;2023-02-19T13:16:18;99406.41;;;12.06;74.02
54592;BME280;40488;48.558;18.150;2023-02-19T13:18:49;99415.00;;;12.02;73.94
54592;BME280;40488;48.558;18.150;2023-02-19T13:21:21;99412.44;;;12.00;74.07
54592;BME280;40488;48.558;18.150;2023-02-19T13:24:05;99415.88;;;11.99;74.17
54592;BME280;40488;48.558;18.150;2023-02-19T13:26:45;99424.44;;;11.95;74.02
54592;BME280;40488;48.558;18.150;2023-02-19T13:32:37;99415.03;;;11.96;73.84
54592;BME280;40488;48.558;18.150;2023-02-19T13:35:25;99413.41;;;11.90;73.50
54592;BME280;40488;48.558;18.150;2023-02-19T13:37:59;99415.97;;;11.92;73.92